createdAt,value
2022-11-06T00:02:43.556Z,7.90
2022-11-06T00:07:36.219Z,7.27
2022-11-06T00:12:30.203Z,8.50
2022-11-06T00:17:22.832Z,7.63
2022-11-06T00:22:16.540Z,7.77
2022-11-06T00:27:09.158Z,8.00
2022-11-06T00:32:03.278Z,7.80
2022-11-06T00:36:56.130Z,7.83
2022-11-06T00:41:48.875Z,8.53
2022-11-06T00:46:41.563Z,8.77
2022-11-06T00:51:37.001Z,10.63
2022-11-06T00:56:30.230Z,10.93
2022-11-06T01:01:24.791Z,11.70
2022-11-06T01:06:19.014Z,12.13
2022-11-06T01:11:13.983Z,12.80
2022-11-06T01:16:07.711Z,12.60
2022-11-06T01:21:00.604Z,10.63
2022-11-06T01:25:59.665Z,11.47
2022-11-06T01:30:54.015Z,10.93
2022-11-06T01:35:47.015Z,11.27
2022-11-06T01:40:41.257Z,10.80
2022-11-06T01:45:36.310Z,11.73
2022-11-06T01:50:30.349Z,9.17
2022-11-06T01:55:25.404Z,9.70
2022-11-06T02:00:20.040Z,7.97
2022-11-06T02:05:12.909Z,8.10
2022-11-06T02:10:07.519Z,7.00
2022-11-06T02:15:02.818Z,6.53
2022-11-06T02:20:01.575Z,6.30
2022-11-06T02:25:12.983Z,7.10
2022-11-06T02:30:09.006Z,6.77
2022-11-06T02:35:03.696Z,5.93
2022-11-06T02:39:58.422Z,5.77
2022-11-06T02:44:52.768Z,5.47
2022-11-06T02:49:48.770Z,4.93
2022-11-06T02:54:43.847Z,5.47
2022-11-06T02:59:41.085Z,7.23
2022-11-06T03:04:36.388Z,5.70
2022-11-06T03:09:32.460Z,6.50
2022-11-06T03:14:27.984Z,6.97
2022-11-06T03:19:25.353Z,7.00
2022-11-06T03:24:19.127Z,6.67
2022-11-06T03:29:16.033Z,5.60
2022-11-06T03:34:10.011Z,8.47
2022-11-06T03:39:04.142Z,5.43
2022-11-06T03:43:58.922Z,4.53
2022-11-06T03:48:54.775Z,4.40
2022-11-06T03:53:48.940Z,4.57
2022-11-06T03:58:43.931Z,5.10
2022-11-06T04:03:38.495Z,4.90
2022-11-06T04:08:50.715Z,4.90
2022-11-06T04:14:00.922Z,4.53
2022-11-06T04:18:53.764Z,4.90
2022-11-06T04:24:09.247Z,4.70
2022-11-06T04:29:05.493Z,5.00
2022-11-06T04:33:59.826Z,5.87
2022-11-06T04:38:56.106Z,5.47
2022-11-06T04:43:50.159Z,6.87
2022-11-06T04:48:43.008Z,8.40
2022-11-06T04:53:36.775Z,8.37
2022-11-06T04:58:30.709Z,8.40
2022-11-06T05:03:23.599Z,10.73
2022-11-06T05:08:17.292Z,11.10
2022-11-06T05:13:10.265Z,12.10
2022-11-06T05:18:04.563Z,10.43
2022-11-06T05:23:00.807Z,8.40
2022-11-06T05:27:53.607Z,9.00
2022-11-06T05:32:46.149Z,7.43
2022-11-06T05:37:40.279Z,9.00
2022-11-06T05:42:32.844Z,9.50
2022-11-06T05:47:25.408Z,9.37
2022-11-06T05:52:18.001Z,9.47
2022-11-06T05:57:11.932Z,8.93
2022-11-06T06:02:04.590Z,5.70
2022-11-06T06:06:57.242Z,9.60
2022-11-06T06:11:51.422Z,8.00
2022-11-06T06:16:45.423Z,6.03
2022-11-06T06:21:37.986Z,6.80
2022-11-06T06:26:30.543Z,6.70
2022-11-06T06:31:23.165Z,6.50
2022-11-06T06:36:17.264Z,6.23
2022-11-06T06:41:10.225Z,7.37
2022-11-06T06:46:03.431Z,7.03
2022-11-06T06:50:57.680Z,6.80
2022-11-06T06:55:51.621Z,6.53
2022-11-06T07:00:44.246Z,5.27
2022-11-06T07:05:37.063Z,5.13
2022-11-06T07:10:31.347Z,5.80
2022-11-06T07:15:25.261Z,5.70
2022-11-06T07:20:17.945Z,8.20
2022-11-06T07:25:10.755Z,6.27
2022-11-06T07:30:03.360Z,3.60
2022-11-06T07:34:57.348Z,3.00
2022-11-06T07:39:50.021Z,4.00
2022-11-06T07:44:42.563Z,4.50
2022-11-06T07:49:35.135Z,5.10
2022-11-06T07:54:29.051Z,6.03
2022-11-06T07:59:21.628Z,5.00
2022-11-06T08:04:14.191Z,5.00
2022-11-06T08:09:07.482Z,4.90
2022-11-06T08:14:02.090Z,4.10
2022-11-06T08:18:54.709Z,3.93
2022-11-06T08:23:47.229Z,3.90
2022-11-06T08:28:39.839Z,4.07
2022-11-06T08:33:33.786Z,4.27
2022-11-06T08:38:26.361Z,4.70
2022-11-06T08:43:18.940Z,5.27
2022-11-06T08:48:11.577Z,5.53
2022-11-06T08:53:06.489Z,5.07
2022-11-06T08:57:59.044Z,5.30
2022-11-06T09:02:51.655Z,4.00
2022-11-06T09:07:44.228Z,3.90
2022-11-06T09:12:38.139Z,4.00
2022-11-06T09:17:30.739Z,4.20
2022-11-06T09:22:23.343Z,3.80
2022-11-06T09:27:15.899Z,4.50
2022-11-06T09:32:09.806Z,4.30
2022-11-06T09:37:02.745Z,3.83
2022-11-06T09:41:57.151Z,4.70
2022-11-06T09:46:49.747Z,4.20
2022-11-06T09:51:47.474Z,4.40
2022-11-06T09:56:41.070Z,4.17
2022-11-06T10:01:36.837Z,4.23
2022-11-06T10:06:29.878Z,3.87
2022-11-06T10:11:30.434Z,3.87
2022-11-06T10:16:30.123Z,5.00
2022-11-06T10:21:24.630Z,5.30
2022-11-06T10:26:18.985Z,5.47
2022-11-06T10:31:19.256Z,5.60
2022-11-06T10:36:15.344Z,6.20
2022-11-06T10:41:15.696Z,5.40
2022-11-06T10:46:13.259Z,5.50
2022-11-06T10:51:12.329Z,4.37
2022-11-06T10:56:20.976Z,7.40
2022-11-06T11:01:15.450Z,5.07
2022-11-06T11:06:09.571Z,5.17
2022-11-06T11:11:05.357Z,4.83
2022-11-06T11:15:58.351Z,5.00
2022-11-06T11:20:53.429Z,4.73
2022-11-06T11:25:48.544Z,4.40
2022-11-06T11:30:41.165Z,4.30
2022-11-06T11:35:35.634Z,4.90
2022-11-06T11:40:36.482Z,4.40
2022-11-06T11:45:30.661Z,4.30
2022-11-06T11:50:27.843Z,4.37
2022-11-06T11:55:22.073Z,5.17
2022-11-06T12:00:16.795Z,4.87
2022-11-06T12:05:12.982Z,4.63
2022-11-06T12:10:17.336Z,5.03
2022-11-06T12:15:19.290Z,4.80
2022-11-06T12:20:16.388Z,4.67
2022-11-06T12:25:11.435Z,4.80
2022-11-06T12:30:05.439Z,5.10
2022-11-06T12:35:04.594Z,5.00
2022-11-06T12:40:03.047Z,5.10
2022-11-06T12:44:55.724Z,5.20
2022-11-06T12:50:05.067Z,5.77
2022-11-06T12:55:07.268Z,5.00
2022-11-06T13:00:05.612Z,5.63
2022-11-06T13:05:03.019Z,5.20
2022-11-06T13:10:02.196Z,5.67
2022-11-06T13:14:59.228Z,5.90
2022-11-06T13:19:55.184Z,5.80
2022-11-06T13:24:50.422Z,5.00
2022-11-06T13:29:43.772Z,5.93
2022-11-06T13:34:38.784Z,5.80
2022-11-06T13:39:33.705Z,5.47
2022-11-06T13:44:26.520Z,5.17
2022-11-06T13:49:23.359Z,5.90
2022-11-06T13:54:22.277Z,5.50
2022-11-06T13:59:23.851Z,5.90
2022-11-06T14:04:30.595Z,7.03
2022-11-06T14:09:26.891Z,5.50
2022-11-06T14:14:25.125Z,5.10
2022-11-06T14:19:26.599Z,7.17
2022-11-06T14:24:31.702Z,5.47
2022-11-06T14:29:39.251Z,5.57
2022-11-06T14:34:32.691Z,5.90
2022-11-06T14:39:40.169Z,5.53
2022-11-06T14:44:42.275Z,5.40
2022-11-06T14:49:36.593Z,5.70
2022-11-06T14:54:29.722Z,5.73
2022-11-06T14:59:23.157Z,6.30
2022-11-06T15:04:19.893Z,6.07
2022-11-06T15:09:13.218Z,6.00
2022-11-06T15:14:24.773Z,5.60
2022-11-06T15:19:21.398Z,6.00
2022-11-06T15:24:16.663Z,6.03
2022-11-06T15:29:14.388Z,7.87
2022-11-06T15:34:08.729Z,7.10
2022-11-06T15:39:21.789Z,8.30
2022-11-06T15:44:14.357Z,7.93
2022-11-06T15:49:08.196Z,9.00
2022-11-06T15:54:02.633Z,9.80
2022-11-06T15:59:08.619Z,7.67
2022-11-06T16:04:03.962Z,8.43
2022-11-06T16:08:56.694Z,8.77
2022-11-06T16:13:51.088Z,9.70
2022-11-06T16:18:44.978Z,10.40
2022-11-06T16:23:39.360Z,8.70
2022-11-06T16:28:33.060Z,8.70
2022-11-06T16:33:26.998Z,12.97
2022-11-06T16:38:45.043Z,13.90
2022-11-06T16:43:37.721Z,11.27
2022-11-06T16:48:34.568Z,14.23
2022-11-06T16:53:28.567Z,10.73
2022-11-06T16:58:22.541Z,8.93
2022-11-06T17:03:20.088Z,10.40
2022-11-06T17:08:22.437Z,23.63
2022-11-06T17:13:16.692Z,8.80
2022-11-06T17:18:13.117Z,8.40
2022-11-06T17:23:05.699Z,8.00
2022-11-06T17:27:59.628Z,7.97
2022-11-06T17:32:52.211Z,8.07
2022-11-06T17:37:45.059Z,9.23
2022-11-06T17:42:37.664Z,8.87
2022-11-06T17:47:31.613Z,9.30
2022-11-06T17:52:24.251Z,9.00
2022-11-06T17:57:22.796Z,8.73
2022-11-06T18:02:34.942Z,7.60
2022-11-06T18:07:31.354Z,8.00
2022-11-06T18:12:27.430Z,7.10
2022-11-06T18:17:20.010Z,7.90
2022-11-06T18:22:12.579Z,9.83
2022-11-06T18:27:06.565Z,7.97
2022-11-06T18:31:59.155Z,15.03
2022-11-06T18:36:51.874Z,8.13
2022-11-06T18:41:44.514Z,6.77
2022-11-06T18:46:38.467Z,17.03
2022-11-06T18:51:35.518Z,10.90
2022-11-06T18:56:29.855Z,14.50
2022-11-06T19:01:23.136Z,13.50
2022-11-06T19:06:18.180Z,12.00
2022-11-06T19:11:10.749Z,8.07
2022-11-06T19:16:03.644Z,12.27
2022-11-06T19:20:56.232Z,7.13
2022-11-06T19:25:54.544Z,6.00
2022-11-06T19:30:58.647Z,4.70
2022-11-06T19:35:51.210Z,4.77
2022-11-06T19:40:43.769Z,3.73
2022-11-06T19:45:37.746Z,9.27
2022-11-06T19:50:53.892Z,3.30
2022-11-06T19:55:42.887Z,3.60
2022-11-06T20:00:38.194Z,4.00
2022-11-06T20:05:30.798Z,3.30
2022-11-06T20:10:23.387Z,3.87
2022-11-06T20:15:18.768Z,3.13
2022-11-06T20:20:16.890Z,2.50
2022-11-06T20:25:09.815Z,2.90
2022-11-06T20:30:02.950Z,2.47
2022-11-06T20:34:55.527Z,2.40
2022-11-06T20:39:52.024Z,2.37
2022-11-06T20:44:44.947Z,2.70
2022-11-06T20:49:37.743Z,2.33
2022-11-06T20:54:30.462Z,1.90
2022-11-06T20:59:24.476Z,2.50
2022-11-06T21:04:17.612Z,2.27
2022-11-06T21:09:10.482Z,2.40
2022-11-06T21:14:03.069Z,2.20
2022-11-06T21:18:57.032Z,2.33
2022-11-06T21:23:50.155Z,2.40
2022-11-06T21:28:44.165Z,2.30
2022-11-06T21:33:36.735Z,1.97
2022-11-06T21:38:30.677Z,1.97
2022-11-06T21:43:23.267Z,2.50
2022-11-06T21:48:40.243Z,2.70
2022-11-06T21:53:47.097Z,2.73
2022-11-06T21:58:39.667Z,2.77
2022-11-06T22:03:32.869Z,3.47
2022-11-06T22:08:30.343Z,3.20
2022-11-06T22:13:24.533Z,2.80
2022-11-06T22:18:17.117Z,2.93
2022-11-06T22:23:09.691Z,3.10
2022-11-06T22:28:02.283Z,3.10
2022-11-06T22:32:56.345Z,3.07
2022-11-06T22:37:49.459Z,3.20
2022-11-06T22:42:42.137Z,3.20
2022-11-06T22:47:37.325Z,3.20
2022-11-06T22:52:31.308Z,2.90
2022-11-06T22:57:23.934Z,2.90
2022-11-06T23:02:16.947Z,3.07
2022-11-06T23:07:09.629Z,2.40
2022-11-06T23:12:03.632Z,2.50
2022-11-06T23:17:00.731Z,2.50
2022-11-06T23:22:13.772Z,2.20
2022-11-06T23:27:07.739Z,2.10
2022-11-06T23:32:00.423Z,1.97
2022-11-06T23:36:53.022Z,2.07
2022-11-06T23:41:46.174Z,2.20
2022-11-06T23:46:40.304Z,2.33
2022-11-06T23:51:32.909Z,2.20
2022-11-06T23:56:25.487Z,2.17
